TimeCST,TemperatureF,Dew PointF,Humidity,Sea Level PressureIn,VisibilityMPH,Wind Direction,Wind SpeedMPH,Gust SpeedMPH,PrecipitationIn,Events,Conditions,WindDirDegrees,DateUTC
12:00 AM,66,64,89,29.83,12,NNE,5.8,,,,Partly Cloudy,30,2013-05-22 06:00:00
12:00 AM,66.2,64.4,94,30.00,-9999.0,NNE,5.8,-,N/A,,Clear,30,2013-05-22 06:00:00
1:00 AM,66.2,64.4,94,29.97,-9999.0,East,4.6,-,N/A,,Clear,90,2013-05-22 07:00:00
2:00 AM,66.2,64.4,94,29.96,-9999.0,East,2.3,-,N/A,,Clear,100,2013-05-22 08:00:00
3:00 AM,66,63,87,29.82,12,ESE,2.3,,,,Partly Cloudy,110,2013-05-22 09:00:00
3:00 AM,66.2,62.6,88,29.93,-9999.0,ESE,2.3,-,N/A,,Clear,110,2013-05-22 09:00:00
4:00 AM,66.2,64.4,94,29.96,-9999.0,NNE,3.5,-,N/A,,Clear,20,2013-05-22 10:00:00
5:00 AM,68.0,64.4,88,29.96,-9999.0,NE,2.3,-,N/A,,Clear,40,2013-05-22 11:00:00
6:00 AM,67,64,87,29.86,12,East,4.6,,,,Mostly Cloudy,90,2013-05-22 12:00:00
6:00 AM,66.2,64.4,94,29.98,-9999.0,East,4.6,-,N/A,,Clear,90,2013-05-22 12:00:00
7:00 AM,71.6,64.4,78,30.00,6.2,East,6.9,-,N/A,,Mostly Cloudy,80,2013-05-22 13:00:00
8:00 AM,78.8,64.4,61,30.01,6.2,SW,1.2,-,N/A,,Mostly Cloudy,220,2013-05-22 14:00:00
9:00 AM,74,67,72,29.87,12,WSW,10.4,,,,Overcast,240,2013-05-22 15:00:00
9:00 AM,73.4,66.2,78,30.04,6.2,WSW,10.4,-,N/A,,Mostly Cloudy,240,2013-05-22 15:00:00
10:00 AM,75.2,66.2,73,30.04,6.2,West,9.2,-,N/A,,Mostly Cloudy,260,2013-05-22 16:00:00
11:00 AM,77.0,68.0,74,30.02,6.2,West,10.4,-,N/A,,Mostly Cloudy,260,2013-05-22 17:00:00
12:00 PM,76,67,67,29.83,12,WSW,11.5,,,,Overcast,250,2013-05-22 18:00:00
12:00 PM,75.2,68.0,78,30.00,6.2,WSW,11.5,-,N/A,,Mostly Cloudy,250,2013-05-22 18:00:00
1:00 PM,77.0,68.0,74,29.97,6.2,SW,16.1,-,N/A,Rain-Thunderstorm,Rain Showers,230,2013-05-22 19:00:00
2:00 PM,73.4,68.0,83,29.95,6.2,SW,13.8,-,N/A,Rain-Thunderstorm,Rain Showers,230,2013-05-22 20:00:00
2:35 PM,69.8,66.2,88,29.95,1.9,West,6.9,-,N/A,Rain,Rain,260,2013-05-22 20:35:00
3:00 PM,69,66,86,29.81,1,West,4.6,,,Rain,Light Rain,280,2013-05-22 21:00:00
3:00 PM,68.0,66.2,94,29.96,1.2,West,4.6,-,N/A,Rain,Rain,280,2013-05-22 21:00:00
3:40 PM,68.0,66.2,94,29.96,3.1,WSW,5.8,-,N/A,Rain,Light Rain,240,2013-05-22 21:40:00
4:00 PM,68.0,66.2,94,29.96,5.0,WSW,5.8,-,N/A,Fog-Rain,Light Rain,240,2013-05-22 22:00:00
5:00 PM,68.0,64.4,88,29.98,6.2,WNW,3.5,-,N/A,Rain,Light Rain,300,2013-05-22 23:00:00
5:40 PM,68.0,66.2,94,30.03,0.2,SSW,2.3,-,N/A,Fog,Fog,200,2013-05-22 23:40:00
6:00 PM,68,65,87,29.85,9,Calm,Calm,,,Rain,Light Drizzle,,2013-05-23 00:00:00
6:00 PM,68.0,64.4,88,29.99,6.2,Calm,Calm,-,N/A,,Light Drizzle,0,2013-05-23 00:00:00
7:00 PM,68.0,66.2,94,30.01,6.2,Calm,Calm,-,N/A,,Mostly Cloudy,0,2013-05-23 01:00:00
8:00 PM,68.0,66.2,94,30.01,6.2,North,2.3,-,N/A,,Mostly Cloudy,10,2013-05-23 02:00:00
9:00 PM,68,66,92,29.87,6,SW,2.3,,,,Overcast,220,2013-05-23 03:00:00
9:00 PM,68.0,66.2,94,30.02,6.2,SW,2.3,-,N/A,,Mostly Cloudy,220,2013-05-23 03:00:00
9:40 PM,68.0,66.2,94,30.03,0.2,SSW,2.3,-,N/A,Fog,Fog,200,2013-05-23 03:40:00
10:00 PM,68.0,66.2,94,30.02,0.2,Calm,Calm,-,N/A,Fog,Fog,0,2013-05-23 04:00:00
10:25 PM,68.0,66.2,94,30.01,0.9,Calm,Calm,-,N/A,,Mostly Cloudy,0,2013-05-23 04:25:00
11:00 PM,68.0,66.2,94,30.01,3.1,Calm,Calm,-,N/A,,Mostly Cloudy,0,2013-05-23 05:00:00